createdAt,value
2022-12-10T00:01:18.259Z,96586.66
2022-12-10T00:03:46.070Z,96584.06
2022-12-10T00:06:16.711Z,96571.69
2022-12-10T00:08:44.096Z,96568.59
2022-12-10T00:11:14.019Z,96565.38
2022-12-10T00:13:41.608Z,96560.59
2022-12-10T00:16:11.789Z,96571.28
2022-12-10T00:18:39.168Z,96565.19
2022-12-10T00:21:12.166Z,96572.22
2022-12-10T00:23:39.852Z,96564.00
2022-12-10T00:26:16.375Z,96543.81
2022-12-10T00:28:45.309Z,96567.06
2022-12-10T00:31:15.193Z,96566.69
2022-12-10T00:33:43.335Z,96561.97
2022-12-10T00:36:19.729Z,96565.47
2022-12-10T00:38:47.734Z,96562.03
2022-12-10T00:41:15.461Z,96556.19
2022-12-10T00:43:43.205Z,96567.06
2022-12-10T00:46:13.479Z,96567.84
2022-12-10T00:48:42.119Z,96574.09
2022-12-10T00:51:14.475Z,96566.50
2022-12-10T00:53:43.574Z,96562.34
2022-12-10T00:56:12.497Z,96548.56
2022-12-10T00:58:40.139Z,96537.09
2022-12-10T01:01:14.448Z,96565.72
2022-12-10T01:03:41.688Z,96563.13
2022-12-10T01:06:23.685Z,96558.09
2022-12-10T01:08:52.065Z,96554.75
2022-12-10T01:11:20.824Z,96566.47
2022-12-10T01:13:48.899Z,96548.63
2022-12-10T01:16:18.680Z,96561.88
2022-12-10T01:18:46.114Z,96549.19
2022-12-10T01:21:18.640Z,96552.31
2022-12-10T01:23:48.144Z,96551.66
2022-12-10T01:26:18.064Z,96532.56
2022-12-10T01:28:45.506Z,96544.03
2022-12-10T01:31:17.227Z,96545.19
2022-12-10T01:33:44.738Z,96542.66
2022-12-10T01:36:15.038Z,96542.78
2022-12-10T01:38:44.046Z,96531.53
2022-12-10T01:41:20.111Z,96500.97
2022-12-10T01:44:02.864Z,96531.09
2022-12-10T01:46:32.363Z,96529.13
2022-12-10T01:49:01.319Z,96528.56
2022-12-10T01:51:32.209Z,96542.47
2022-12-10T01:53:59.754Z,96544.50
2022-12-10T01:56:26.611Z,96532.56
2022-12-10T01:58:56.597Z,96547.97
2022-12-10T02:01:51.424Z,96546.97
2022-12-10T02:04:26.483Z,96533.50
2022-12-10T02:07:22.513Z,96527.84
2022-12-10T02:09:53.332Z,96530.66
2022-12-10T02:12:29.264Z,96529.81
2022-12-10T02:15:03.568Z,96526.56
2022-12-10T02:17:44.157Z,96520.38
2022-12-10T02:20:15.759Z,96522.88
2022-12-10T02:22:51.766Z,96523.22
2022-12-10T02:25:24.603Z,96511.09
2022-12-10T02:28:14.047Z,96517.47
2022-12-10T02:30:43.667Z,96506.47
2022-12-10T02:33:13.194Z,96505.13
2022-12-10T02:35:42.928Z,96494.28
2022-12-10T02:38:20.678Z,96495.50
2022-12-10T02:40:53.562Z,96476.56
2022-12-10T02:43:23.497Z,96486.09
2022-12-10T02:45:52.082Z,96493.56
2022-12-10T02:48:20.562Z,96498.13
2022-12-10T02:50:47.645Z,96472.78
2022-12-10T02:53:14.612Z,96491.25
2022-12-10T02:56:03.566Z,96483.16
2022-12-10T02:59:03.902Z,96494.59
2022-12-10T03:02:02.219Z,96490.63
2022-12-10T03:05:02.051Z,96484.22
2022-12-10T03:07:46.397Z,96443.81
2022-12-10T03:10:22.449Z,96469.00
2022-12-10T03:12:55.923Z,96483.38
2022-12-10T03:15:25.521Z,96464.53
2022-12-10T03:17:55.078Z,96461.88
2022-12-10T03:20:24.928Z,96466.09
2022-12-10T03:22:52.685Z,96478.78
2022-12-10T03:25:25.085Z,96464.47
2022-12-10T03:27:55.966Z,96476.75
2022-12-10T03:30:23.867Z,96472.50
2022-12-10T03:32:51.599Z,96458.56
2022-12-10T03:35:21.283Z,96479.47
2022-12-10T03:37:50.408Z,96483.75
2022-12-10T03:40:21.359Z,96478.75
2022-12-10T03:42:48.524Z,96465.72
2022-12-10T03:45:15.643Z,96467.28
2022-12-10T03:47:42.884Z,96465.16
2022-12-10T03:50:11.543Z,96462.81
2022-12-10T03:52:39.536Z,96453.13
2022-12-10T03:56:02.371Z,96463.53
2022-12-10T03:58:48.130Z,96471.06
2022-12-10T04:01:16.770Z,96459.44
2022-12-10T04:03:44.276Z,96463.63
2022-12-10T04:06:17.822Z,96461.22
2022-12-10T04:08:45.292Z,96456.91
2022-12-10T04:11:14.091Z,96457.00
2022-12-10T04:13:59.481Z,96452.78
2022-12-10T04:16:30.319Z,96452.25
2022-12-10T04:19:03.701Z,96444.28
2022-12-10T04:21:51.455Z,96453.16
2022-12-10T04:24:40.807Z,96459.84
2022-12-10T04:27:22.689Z,96462.13
2022-12-10T04:29:50.886Z,96452.19
2022-12-10T04:32:19.055Z,96460.78
2022-12-10T04:34:46.384Z,96448.50
2022-12-10T04:37:15.816Z,96453.16
2022-12-10T04:39:42.778Z,96422.19
2022-12-10T04:42:10.038Z,96450.50
2022-12-10T04:44:37.206Z,96445.69
2022-12-10T04:47:05.669Z,96448.25
2022-12-10T04:49:32.989Z,96446.88
2022-12-10T04:52:00.145Z,96446.00
2022-12-10T04:54:27.565Z,96435.50
2022-12-10T04:56:54.741Z,96423.25
2022-12-10T04:59:21.602Z,96443.41
2022-12-10T05:01:48.762Z,96434.34
2022-12-10T05:04:18.810Z,96448.38
2022-12-10T05:06:48.351Z,96434.22
2022-12-10T05:09:15.269Z,96454.56
2022-12-10T05:11:42.442Z,96455.41
2022-12-10T05:14:12.265Z,96426.34
2022-12-10T05:16:39.132Z,96436.41
2022-12-10T05:19:06.036Z,96438.06
2022-12-10T05:21:53.204Z,96430.97
2022-12-10T05:24:20.089Z,96435.91
2022-12-10T05:26:47.602Z,96436.19
2022-12-10T05:29:14.742Z,96442.53
2022-12-10T05:31:41.653Z,96413.09
2022-12-10T05:34:11.658Z,96449.97
2022-12-10T05:36:38.556Z,96456.03
2022-12-10T05:39:05.517Z,96463.06
2022-12-10T05:41:36.665Z,96460.47
2022-12-10T05:44:04.288Z,96463.44
2022-12-10T05:46:32.787Z,96448.25
2022-12-10T05:49:01.383Z,96441.28
2022-12-10T05:51:31.653Z,96442.81
2022-12-10T05:53:59.939Z,96404.25
2022-12-10T05:56:27.239Z,96446.44
2022-12-10T05:58:58.160Z,96457.50
2022-12-10T06:01:27.699Z,96445.59
2022-12-10T06:03:55.195Z,96432.91
2022-12-10T06:06:28.457Z,96434.25
2022-12-10T06:08:56.098Z,96435.91
2022-12-10T06:11:23.044Z,96439.22
2022-12-10T06:13:55.813Z,96416.03
2022-12-10T06:16:24.000Z,96442.31
2022-12-10T06:18:51.536Z,96439.81
2022-12-10T06:21:19.340Z,96441.59
2022-12-10T06:23:47.625Z,96443.81
2022-12-10T06:26:20.625Z,96452.13
2022-12-10T06:28:48.595Z,96431.97
2022-12-10T06:31:16.281Z,96440.31
2022-12-10T06:33:43.966Z,96436.97
2022-12-10T06:36:14.214Z,96441.50
2022-12-10T06:38:41.224Z,96441.94
2022-12-10T06:41:10.762Z,96433.78
2022-12-10T06:43:41.742Z,96429.47
2022-12-10T06:46:12.819Z,96428.47
2022-12-10T06:48:40.193Z,96432.53
2022-12-10T06:51:08.013Z,96433.34
2022-12-10T06:53:36.499Z,96428.63
2022-12-10T06:56:04.877Z,96430.50
2022-12-10T06:58:32.904Z,96423.31
2022-12-10T07:01:21.427Z,96423.47
2022-12-10T07:03:56.249Z,96419.22
2022-12-10T07:06:24.594Z,96424.19
2022-12-10T07:08:51.828Z,96420.81
2022-12-10T07:11:21.483Z,96432.53
2022-12-10T07:13:48.407Z,96420.41
2022-12-10T07:16:27.494Z,96427.13
2022-12-10T07:18:56.184Z,96428.94
2022-12-10T07:21:24.965Z,96401.72
2022-12-10T07:23:54.894Z,96442.59
2022-12-10T07:26:22.718Z,96421.09
2022-12-10T07:28:53.428Z,96439.13
2022-12-10T07:31:21.788Z,96427.06
2022-12-10T07:33:49.810Z,96415.75
2022-12-10T07:36:17.140Z,96418.88
2022-12-10T07:38:45.575Z,96414.84
2022-12-10T07:41:14.206Z,96411.44
2022-12-10T07:43:43.539Z,96419.19
2022-12-10T07:46:17.371Z,96418.69
2022-12-10T07:48:45.758Z,96413.06
2022-12-10T07:51:13.546Z,96415.16
2022-12-10T07:53:40.772Z,96413.25
2022-12-10T07:56:10.172Z,96406.00
2022-12-10T07:58:37.598Z,96397.22
2022-12-10T08:01:09.734Z,96406.19
2022-12-10T08:03:37.009Z,96418.66
2022-12-10T08:06:10.086Z,96399.91
2022-12-10T08:08:38.551Z,96413.63
2022-12-10T08:11:05.924Z,96413.16
2022-12-10T08:13:33.582Z,96409.16
2022-12-10T08:16:14.486Z,96403.44
2022-12-10T08:18:42.153Z,96402.59
2022-12-10T08:21:12.481Z,96400.03
2022-12-10T08:23:39.669Z,96401.91
2022-12-10T08:26:08.696Z,96388.88
2022-12-10T08:28:36.274Z,96388.41
2022-12-10T08:31:05.262Z,96398.97
2022-12-10T08:33:35.815Z,96410.28
2022-12-10T08:36:04.893Z,96407.19
2022-12-10T08:38:32.845Z,96398.91
2022-12-10T08:40:59.971Z,96386.72
2022-12-10T08:43:26.925Z,96402.25
2022-12-10T08:45:55.587Z,96388.97
2022-12-10T08:48:22.925Z,96379.31
2022-12-10T08:50:49.776Z,96376.09
2022-12-10T08:53:16.696Z,96370.56
2022-12-10T08:55:48.927Z,96364.91
2022-12-10T08:58:16.119Z,96349.06
2022-12-10T09:00:43.237Z,96365.00
2022-12-10T10:43:46.124Z,96203.28
2022-12-10T10:49:27.915Z,96196.81
2022-12-10T10:52:00.375Z,96193.66
2022-12-10T10:54:49.247Z,96183.78
2022-12-10T10:57:22.813Z,96174.03
2022-12-10T10:59:52.376Z,96176.06
2022-12-10T11:02:30.814Z,96184.25
2022-12-10T11:05:01.353Z,96160.09
2022-12-10T11:07:42.043Z,96174.88
2022-12-10T11:10:22.359Z,96179.22
2022-12-10T11:12:58.119Z,96136.28
2022-12-10T11:15:25.351Z,96169.38
2022-12-10T11:17:55.218Z,96162.50
2022-12-10T11:20:24.874Z,96161.69
2022-12-10T11:23:04.540Z,96161.22
2022-12-10T11:25:38.310Z,96152.91
2022-12-10T11:29:07.168Z,96155.75
2022-12-10T11:31:43.599Z,96147.69
2022-12-10T11:34:10.407Z,96138.47
2022-12-10T11:37:07.212Z,96137.28
2022-12-10T11:39:39.901Z,96143.19
2022-12-10T11:42:27.889Z,96152.31
2022-12-10T11:45:09.152Z,96143.91
2022-12-10T11:47:43.634Z,96155.75
2022-12-10T11:50:29.272Z,96093.78
2022-12-10T11:53:05.549Z,96135.59
2022-12-10T11:56:00.811Z,96078.75
2022-12-10T11:58:59.943Z,96128.97
2022-12-10T12:01:49.860Z,96130.97
2022-12-10T12:04:31.529Z,96128.50
2022-12-10T12:07:22.032Z,96092.47
2022-12-10T12:10:26.502Z,96115.69
2022-12-10T12:13:02.245Z,96104.09
2022-12-10T12:16:04.180Z,96090.47
2022-12-10T12:18:49.837Z,96085.13
2022-12-10T12:21:18.024Z,96041.94
2022-12-10T12:24:02.073Z,96072.25
2022-12-10T12:26:34.440Z,96061.69
2022-12-10T12:29:19.058Z,96057.31
2022-12-10T12:32:05.343Z,96065.59
2022-12-10T12:35:00.850Z,96057.19
2022-12-10T12:37:39.779Z,96064.38
2022-12-10T12:40:40.656Z,96063.81
2022-12-10T12:43:17.458Z,96055.16
2022-12-10T12:45:49.178Z,96053.03
2022-12-10T12:48:34.111Z,96071.97
2022-12-10T12:51:22.661Z,96069.03
2022-12-10T12:53:50.325Z,96067.16
2022-12-10T12:56:54.259Z,96075.91
2022-12-10T13:00:04.174Z,96079.22
2022-12-10T13:03:02.983Z,96087.28
2022-12-10T13:05:34.195Z,96077.56
2022-12-10T13:08:29.492Z,96077.22
2022-12-10T13:11:11.605Z,96073.88
2022-12-10T13:13:41.759Z,96082.53
2022-12-10T13:16:39.676Z,96056.25
2022-12-10T13:19:22.031Z,96049.38
2022-12-10T13:21:52.168Z,96020.25
2022-12-10T13:24:46.151Z,96054.81
2022-12-10T13:27:12.957Z,96067.13
2022-12-10T13:29:53.658Z,96061.94
2022-12-10T13:32:43.101Z,96040.59
2022-12-10T13:35:10.163Z,96051.00
2022-12-10T13:37:54.278Z,96050.78
2022-12-10T13:40:52.059Z,96059.81
2022-12-10T13:43:57.990Z,96061.22
2022-12-10T13:46:50.851Z,96057.38
2022-12-10T13:49:27.056Z,96068.91
2022-12-10T13:52:08.198Z,96080.88
2022-12-10T13:54:43.974Z,96064.03
2022-12-10T13:57:33.537Z,96047.19
2022-12-10T14:00:10.216Z,96048.63
2022-12-10T14:02:58.280Z,96050.50
2022-12-10T14:05:54.275Z,96045.53
2022-12-10T14:08:28.613Z,96038.19
2022-12-10T14:10:58.854Z,96040.06
2022-12-10T14:13:48.635Z,96042.69
2022-12-10T14:16:16.834Z,96016.59
2022-12-10T14:18:47.154Z,95999.19
2022-12-10T14:21:16.512Z,96004.41
2022-12-10T14:23:54.597Z,96005.97
2022-12-10T14:26:30.323Z,96021.75
2022-12-10T14:29:24.215Z,96007.53
2022-12-10T14:31:56.067Z,96021.44
2022-12-10T14:34:27.717Z,96006.09
2022-12-10T14:37:03.116Z,96010.59
2022-12-10T14:39:34.317Z,96005.19
2022-12-10T14:42:04.816Z,96006.56
2022-12-10T14:44:35.050Z,96012.16
2022-12-10T14:47:16.127Z,96004.28
2022-12-10T14:49:47.128Z,95983.34
2022-12-10T14:52:18.477Z,95987.50
2022-12-10T14:54:47.093Z,96005.19
2022-12-10T14:57:24.099Z,95986.63
2022-12-10T15:00:08.475Z,96000.13
2022-12-10T15:02:39.453Z,95990.44
2022-12-10T15:05:12.300Z,95997.19
2022-12-10T15:07:41.110Z,96005.53
2022-12-10T15:10:18.864Z,95968.84
2022-12-10T15:12:49.468Z,96003.72
2022-12-10T15:15:25.278Z,96005.38
2022-12-10T15:18:07.238Z,95968.69
2022-12-10T15:20:42.956Z,95978.88
2022-12-10T15:23:35.098Z,95980.94
2022-12-10T15:26:15.110Z,95976.72
2022-12-10T15:28:42.937Z,95980.66
2022-12-10T15:31:27.914Z,95971.22
2022-12-10T15:34:00.828Z,95965.97
2022-12-10T15:36:36.635Z,95970.44
2022-12-10T15:39:17.405Z,95974.75
2022-12-10T15:41:47.391Z,95969.34
2022-12-10T15:44:21.089Z,95967.75
2022-12-10T15:46:52.583Z,95958.31
2022-12-10T15:49:19.426Z,95920.97
2022-12-10T15:51:46.403Z,95956.88
2022-12-10T15:54:35.048Z,95959.16
2022-12-10T15:57:12.513Z,95936.03
2022-12-10T15:59:39.434Z,95948.06
2022-12-10T16:02:18.412Z,95946.91
2022-12-10T16:04:45.332Z,95966.25
2022-12-10T16:07:12.222Z,95953.97
2022-12-10T16:09:39.085Z,95957.25
2022-12-10T16:12:06.033Z,95964.91
2022-12-10T16:14:32.993Z,95968.50
2022-12-10T16:16:59.920Z,95966.63
2022-12-10T16:19:26.983Z,95951.38
2022-12-10T16:21:58.161Z,95948.41
2022-12-10T16:24:25.039Z,95961.53
2022-12-10T16:26:51.906Z,95967.56
2022-12-10T16:29:23.970Z,95951.44
2022-12-10T16:31:51.217Z,95968.03
2022-12-10T16:34:18.119Z,95966.75
2022-12-10T16:36:44.955Z,95968.78
2022-12-10T16:39:12.828Z,95954.22
2022-12-10T16:41:39.904Z,95963.00
2022-12-10T16:44:06.802Z,95922.63
2022-12-10T16:46:35.592Z,95954.03
2022-12-10T16:49:03.398Z,95957.03
2022-12-10T16:51:31.781Z,95954.19
2022-12-10T16:54:00.575Z,95935.47
2022-12-10T16:56:27.682Z,95959.00
2022-12-10T16:58:55.855Z,95964.72
2022-12-10T17:01:32.027Z,95951.72
2022-12-10T17:04:00.232Z,95953.78
2022-12-10T17:06:29.529Z,95929.75
2022-12-10T17:08:56.510Z,95931.13
2022-12-10T17:11:45.084Z,95923.50
2022-12-10T17:14:24.001Z,95940.16
2022-12-10T17:16:53.064Z,95941.00
2022-12-10T17:19:20.984Z,95913.19
2022-12-10T17:21:48.008Z,95916.03
2022-12-10T17:24:17.033Z,95920.38
2022-12-10T17:26:46.141Z,95901.59
2022-12-10T17:29:40.026Z,95876.56
2022-12-10T17:32:12.371Z,95897.47
2022-12-10T17:34:39.420Z,95914.00
2022-12-10T17:37:12.538Z,95894.16
2022-12-10T17:39:39.544Z,95905.50
2022-12-10T17:42:08.415Z,95919.91
2022-12-10T17:44:36.312Z,95903.94
2022-12-10T17:47:20.232Z,95908.22
2022-12-10T17:49:50.521Z,95895.00
2022-12-10T17:52:17.634Z,95905.81
2022-12-10T17:54:44.581Z,95892.50
2022-12-10T17:57:16.727Z,95897.72
2022-12-10T17:59:43.666Z,95891.69
2022-12-10T18:02:11.933Z,95890.84
2022-12-10T18:04:39.755Z,95898.63
2022-12-10T18:07:18.279Z,95902.91
2022-12-10T18:09:46.385Z,95903.63
2022-12-10T18:12:13.234Z,95880.56
2022-12-10T18:14:40.471Z,95898.44
2022-12-10T18:17:13.248Z,95896.53
2022-12-10T18:19:44.369Z,95885.38
2022-12-10T18:22:13.005Z,95885.22
2022-12-10T18:24:40.455Z,95855.56
2022-12-10T18:27:09.475Z,95876.75
2022-12-10T18:29:36.417Z,95862.78
2022-12-10T18:32:03.900Z,95868.34
2022-12-10T18:34:30.865Z,95831.72
2022-12-10T18:36:58.116Z,95856.81
2022-12-10T18:39:29.281Z,95856.28
2022-12-10T18:41:56.103Z,95845.31
2022-12-10T18:44:25.291Z,95837.47
2022-12-10T18:46:54.236Z,95855.09
2022-12-10T18:49:23.057Z,95864.72
2022-12-10T18:51:50.575Z,95856.84
2022-12-10T18:54:18.679Z,95832.38
2022-12-10T18:56:58.038Z,95838.72
2022-12-10T18:59:31.455Z,95839.25
2022-12-10T19:01:58.400Z,95829.78
2022-12-10T19:04:25.292Z,95830.50
2022-12-10T19:06:52.391Z,95824.13
2022-12-10T19:09:20.019Z,95818.66
2022-12-10T19:11:48.608Z,95820.81
2022-12-10T19:14:16.628Z,95811.34
2022-12-10T19:16:44.036Z,95803.53
2022-12-10T19:19:13.294Z,95795.28
2022-12-10T19:21:40.831Z,95794.00
2022-12-10T19:24:08.454Z,95773.88
2022-12-10T19:26:38.536Z,95806.66
2022-12-10T19:29:20.331Z,95789.72
2022-12-10T19:31:48.027Z,95793.16
2022-12-10T19:34:16.564Z,95796.41
2022-12-10T19:36:53.166Z,95787.91
2022-12-10T19:39:23.297Z,95780.59
2022-12-10T19:41:51.685Z,95791.94
2022-12-10T19:44:19.048Z,95777.13
2022-12-10T19:46:46.105Z,95784.78
2022-12-10T19:49:15.570Z,95776.03
2022-12-10T19:51:43.555Z,95773.09
2022-12-10T19:54:12.325Z,95766.56
2022-12-10T19:56:39.725Z,95756.56
2022-12-10T19:59:20.428Z,95753.03
2022-12-10T20:01:47.884Z,95760.63
2022-12-10T20:04:16.008Z,95751.53
2022-12-10T20:06:45.574Z,95735.00
2022-12-10T20:09:27.445Z,95758.19
2022-12-10T20:11:55.517Z,95750.88
2022-12-10T20:14:23.848Z,95740.25
2022-12-10T20:16:52.115Z,95732.34
2022-12-10T20:19:23.607Z,95723.84
2022-12-10T20:21:53.956Z,95716.16
2022-12-10T20:24:21.541Z,95712.28
2022-12-10T20:26:49.698Z,95720.44
2022-12-10T20:29:26.070Z,95718.00
2022-12-10T20:31:55.731Z,95704.59
2022-12-10T20:34:24.959Z,95706.06
2022-12-10T20:36:56.361Z,95717.63
2022-12-10T20:39:26.395Z,95718.81
2022-12-10T20:41:54.149Z,95713.63
2022-12-10T20:44:22.477Z,95726.59
2022-12-10T20:46:50.928Z,95714.56
2022-12-10T20:49:20.255Z,95718.44
2022-12-10T20:51:47.367Z,95697.19
2022-12-10T20:54:14.356Z,95699.06
2022-12-10T20:56:41.472Z,95689.84
2022-12-10T20:59:08.393Z,95687.59
2022-12-10T21:01:35.443Z,95689.38
2022-12-10T21:04:02.576Z,95691.13
2022-12-10T21:06:30.690Z,95683.91
2022-12-10T21:08:57.808Z,95668.31
2022-12-10T21:11:28.063Z,95685.78
2022-12-10T21:13:55.026Z,95664.00
2022-12-10T21:16:25.410Z,95667.66
2022-12-10T21:18:54.136Z,95661.53
2022-12-10T21:21:24.273Z,95639.19
2022-12-10T21:23:51.176Z,95636.72
2022-12-10T21:26:18.249Z,95648.84
2022-12-10T21:28:45.236Z,95623.69
2022-12-10T21:31:20.921Z,95627.44
2022-12-10T21:33:48.036Z,95615.25
2022-12-10T21:36:16.309Z,95619.59
2022-12-10T21:38:43.450Z,95603.78
2022-12-10T21:41:33.014Z,95620.16
2022-12-10T21:43:59.834Z,95617.91
2022-12-10T21:46:26.709Z,95618.25
2022-12-10T21:48:53.644Z,95603.13
2022-12-10T21:51:20.537Z,95590.22
2022-12-10T21:53:47.680Z,95612.88
2022-12-10T21:56:15.113Z,95594.72
2022-12-10T21:58:43.287Z,95606.59
2022-12-10T22:01:20.213Z,95601.34
2022-12-10T22:03:56.248Z,95601.81
2022-12-10T22:06:28.702Z,95584.75
2022-12-10T22:08:56.200Z,95572.75
2022-12-10T22:11:23.034Z,95567.69
2022-12-10T22:13:53.689Z,95529.47
2022-12-10T22:16:20.620Z,95566.53
2022-12-10T22:18:47.564Z,95561.72
2022-12-10T22:21:15.028Z,95552.69
2022-12-10T22:23:41.962Z,95537.06
2022-12-10T22:26:09.499Z,95537.34
2022-12-10T22:28:36.529Z,95545.56
2022-12-10T22:31:07.666Z,95524.19
2022-12-10T22:33:35.589Z,95527.44
2022-12-10T22:36:03.180Z,95536.97
2022-12-10T22:38:30.185Z,95519.22
2022-12-10T22:40:57.079Z,95507.16
2022-12-10T22:43:49.990Z,95525.56
2022-12-10T22:46:11.348Z,95502.09
2022-12-10T22:48:38.357Z,95465.94
2022-12-10T22:51:07.354Z,95496.56
2022-12-10T22:53:34.873Z,95483.81
2022-12-10T22:56:06.978Z,95469.41
2022-12-10T22:58:33.910Z,95473.69
2022-12-10T23:01:00.958Z,95472.41
2022-12-10T23:03:28.059Z,95450.75
2022-12-10T23:05:56.066Z,95459.69
2022-12-10T23:08:24.124Z,95456.94
2022-12-10T23:10:52.063Z,95419.22
2022-12-10T23:13:21.612Z,95438.69
2022-12-10T23:15:52.179Z,95431.56
2022-12-10T23:18:20.384Z,95418.53
2022-12-10T23:20:50.248Z,95427.03
2022-12-10T23:23:20.727Z,95421.84
2022-12-10T23:25:47.611Z,95398.97
2022-12-10T23:28:15.232Z,95377.16
2022-12-10T23:30:42.591Z,95361.91
2022-12-10T23:33:09.653Z,95357.66
2022-12-10T23:35:43.217Z,95371.50
2022-12-10T23:38:10.844Z,95345.59
2022-12-10T23:40:42.511Z,95357.09
2022-12-10T23:43:11.261Z,95367.56
2022-12-10T23:45:40.745Z,95330.94
2022-12-10T23:48:07.903Z,95291.00
2022-12-10T23:50:35.029Z,95320.09
2022-12-10T23:53:03.924Z,95330.53
2022-12-10T23:55:30.845Z,95290.91
2022-12-10T23:57:57.752Z,95324.75
